sensor_id;sensor_type;location;lat;lon;timestamp;P1;durP1;ratioP1;P2;durP2;ratioP2
27201;SDS011;14717;46.924;15.474;2022-11-20T00:02:24;24.83;;;10.60;;
27201;SDS011;14717;46.924;15.474;2022-11-20T00:04:49;31.08;;;12.27;;
27201;SDS011;14717;46.924;15.474;2022-11-20T00:07:14;33.03;;;11.73;;
27201;SDS011;14717;46.924;15.474;2022-11-20T00:09:40;30.95;;;12.35;;
27201;SDS011;14717;46.924;15.474;2022-11-20T00:12:05;58.00;;;19.25;;
27201;SDS011;14717;46.924;15.474;2022-11-20T00:14:31;37.88;;;15.27;;
27201;SDS011;14717;46.924;15.474;2022-11-20T00:16:56;29.77;;;11.23;;
27201;SDS011;14717;46.924;15.474;2022-11-20T00:19:21;24.88;;;11.32;;
27201;SDS011;14717;46.924;15.474;2022-11-20T00:21:47;26.75;;;10.57;;
27201;SDS011;14717;46.924;15.474;2022-11-20T00:24:12;24.55;;;9.82;;
27201;SDS011;14717;46.924;15.474;2022-11-20T00:26:37;22.90;;;9.95;;
27201;SDS011;14717;46.924;15.474;2022-11-20T00:29:03;23.00;;;9.73;;
27201;SDS011;14717;46.924;15.474;2022-11-20T00:31:29;20.40;;;9.27;;
27201;SDS011;14717;46.924;15.474;2022-11-20T00:33:55;22.48;;;9.35;;
27201;SDS011;14717;46.924;15.474;2022-11-20T00:36:21;21.27;;;9.43;;
27201;SDS011;14717;46.924;15.474;2022-11-20T00:38:52;24.50;;;9.70;;
27201;SDS011;14717;46.924;15.474;2022-11-20T00:41:19;21.17;;;9.25;;
27201;SDS011;14717;46.924;15.474;2022-11-20T00:43:45;23.85;;;9.10;;
27201;SDS011;14717;46.924;15.474;2022-11-20T00:46:14;24.85;;;9.45;;
27201;SDS011;14717;46.924;15.474;2022-11-20T00:48:41;21.35;;;8.65;;
27201;SDS011;14717;46.924;15.474;2022-11-20T00:51:07;21.42;;;8.25;;
27201;SDS011;14717;46.924;15.474;2022-11-20T00:53:33;20.25;;;8.60;;
27201;SDS011;14717;46.924;15.474;2022-11-20T00:56:00;20.10;;;8.75;;
27201;SDS011;14717;46.924;15.474;2022-11-20T00:58:33;18.02;;;8.35;;
27201;SDS011;14717;46.924;15.474;2022-11-20T01:03:27;21.58;;;9.52;;
27201;SDS011;14717;46.924;15.474;2022-11-20T01:05:52;19.35;;;8.65;;
27201;SDS011;14717;46.924;15.474;2022-11-20T01:08:18;18.88;;;8.18;;
27201;SDS011;14717;46.924;15.474;2022-11-20T01:10:43;18.90;;;7.63;;
27201;SDS011;14717;46.924;15.474;2022-11-20T01:13:08;16.77;;;7.70;;
27201;SDS011;14717;46.924;15.474;2022-11-20T01:15:52;20.67;;;8.60;;
27201;SDS011;14717;46.924;15.474;2022-11-20T01:18:18;20.10;;;8.80;;
27201;SDS011;14717;46.924;15.474;2022-11-20T01:20:43;25.10;;;9.30;;
27201;SDS011;14717;46.924;15.474;2022-11-20T01:23:08;24.52;;;9.65;;
27201;SDS011;14717;46.924;15.474;2022-11-20T01:25:34;21.35;;;9.13;;
27201;SDS011;14717;46.924;15.474;2022-11-20T01:27:59;21.65;;;9.43;;
27201;SDS011;14717;46.924;15.474;2022-11-20T01:30:25;19.48;;;8.68;;
27201;SDS011;14717;46.924;15.474;2022-11-20T01:32:50;20.98;;;8.80;;
27201;SDS011;14717;46.924;15.474;2022-11-20T01:35:16;20.90;;;8.35;;
27201;SDS011;14717;46.924;15.474;2022-11-20T01:37:41;20.88;;;8.75;;
27201;SDS011;14717;46.924;15.474;2022-11-20T01:40:07;20.83;;;8.50;;
27201;SDS011;14717;46.924;15.474;2022-11-20T01:42:32;19.90;;;8.00;;
27201;SDS011;14717;46.924;15.474;2022-11-20T01:48:18;22.58;;;8.55;;
27201;SDS011;14717;46.924;15.474;2022-11-20T01:50:46;20.92;;;8.48;;
27201;SDS011;14717;46.924;15.474;2022-11-20T01:53:12;20.48;;;8.60;;
27201;SDS011;14717;46.924;15.474;2022-11-20T01:55:46;20.85;;;9.02;;
27201;SDS011;14717;46.924;15.474;2022-11-20T01:58:16;19.27;;;8.05;;
27201;SDS011;14717;46.924;15.474;2022-11-20T02:00:48;19.02;;;7.90;;
27201;SDS011;14717;46.924;15.474;2022-11-20T02:03:15;19.90;;;8.70;;
27201;SDS011;14717;46.924;15.474;2022-11-20T02:05:46;18.60;;;8.40;;
27201;SDS011;14717;46.924;15.474;2022-11-20T02:08:23;17.80;;;8.20;;
27201;SDS011;14717;46.924;15.474;2022-11-20T02:10:48;22.58;;;8.43;;
27201;SDS011;14717;46.924;15.474;2022-11-20T02:13:14;17.58;;;8.32;;
27201;SDS011;14717;46.924;15.474;2022-11-20T02:15:59;23.88;;;9.68;;
27201;SDS011;14717;46.924;15.474;2022-11-20T02:18:24;25.67;;;9.65;;
27201;SDS011;14717;46.924;15.474;2022-11-20T02:20:53;31.05;;;11.40;;
27201;SDS011;14717;46.924;15.474;2022-11-20T02:25:49;25.87;;;10.43;;
27201;SDS011;14717;46.924;15.474;2022-11-20T02:28:15;26.95;;;9.82;;
27201;SDS011;14717;46.924;15.474;2022-11-20T02:30:41;24.50;;;9.23;;
27201;SDS011;14717;46.924;15.474;2022-11-20T02:33:07;24.40;;;10.00;;
27201;SDS011;14717;46.924;15.474;2022-11-20T02:37:58;21.35;;;8.77;;
27201;SDS011;14717;46.924;15.474;2022-11-20T02:40:25;22.00;;;9.32;;
27201;SDS011;14717;46.924;15.474;2022-11-20T02:42:54;22.83;;;8.30;;
27201;SDS011;14717;46.924;15.474;2022-11-20T02:45:20;18.35;;;7.82;;
27201;SDS011;14717;46.924;15.474;2022-11-20T02:47:47;20.02;;;8.77;;
27201;SDS011;14717;46.924;15.474;2022-11-20T02:50:13;21.38;;;8.38;;
27201;SDS011;14717;46.924;15.474;2022-11-20T02:52:38;20.40;;;9.07;;
27201;SDS011;14717;46.924;15.474;2022-11-20T02:55:03;16.65;;;7.70;;
27201;SDS011;14717;46.924;15.474;2022-11-20T02:57:29;17.15;;;8.57;;
27201;SDS011;14717;46.924;15.474;2022-11-20T02:59:55;17.73;;;8.38;;
27201;SDS011;14717;46.924;15.474;2022-11-20T03:02:20;20.30;;;8.65;;
27201;SDS011;14717;46.924;15.474;2022-11-20T03:04:46;17.52;;;8.50;;
27201;SDS011;14717;46.924;15.474;2022-11-20T03:07:11;17.75;;;8.27;;
27201;SDS011;14717;46.924;15.474;2022-11-20T03:09:37;22.55;;;8.80;;
27201;SDS011;14717;46.924;15.474;2022-11-20T03:12:04;16.35;;;7.70;;
27201;SDS011;14717;46.924;15.474;2022-11-20T03:14:30;20.27;;;8.52;;
27201;SDS011;14717;46.924;15.474;2022-11-20T03:16:55;18.42;;;7.30;;
27201;SDS011;14717;46.924;15.474;2022-11-20T03:19:22;18.73;;;8.63;;
27201;SDS011;14717;46.924;15.474;2022-11-20T03:21:48;14.77;;;7.47;;
27201;SDS011;14717;46.924;15.474;2022-11-20T03:24:13;19.05;;;7.20;;
27201;SDS011;14717;46.924;15.474;2022-11-20T03:26:39;19.92;;;7.85;;
27201;SDS011;14717;46.924;15.474;2022-11-20T03:29:04;17.27;;;7.50;;
27201;SDS011;14717;46.924;15.474;2022-11-20T03:31:34;18.42;;;7.40;;
27201;SDS011;14717;46.924;15.474;2022-11-20T03:34:01;15.02;;;7.13;;
27201;SDS011;14717;46.924;15.474;2022-11-20T03:36:29;15.57;;;7.50;;
27201;SDS011;14717;46.924;15.474;2022-11-20T03:38:55;17.63;;;7.32;;
27201;SDS011;14717;46.924;15.474;2022-11-20T03:41:22;17.15;;;7.30;;
27201;SDS011;14717;46.924;15.474;2022-11-20T03:43:56;17.67;;;7.55;;
27201;SDS011;14717;46.924;15.474;2022-11-20T03:46:21;16.42;;;7.75;;
27201;SDS011;14717;46.924;15.474;2022-11-20T03:48:47;17.70;;;7.90;;
27201;SDS011;14717;46.924;15.474;2022-11-20T03:51:14;17.38;;;7.82;;
27201;SDS011;14717;46.924;15.474;2022-11-20T03:53:48;17.15;;;7.90;;
27201;SDS011;14717;46.924;15.474;2022-11-20T03:56:16;15.98;;;7.53;;
27201;SDS011;14717;46.924;15.474;2022-11-20T03:58:44;17.23;;;8.00;;
27201;SDS011;14717;46.924;15.474;2022-11-20T04:01:11;17.75;;;8.10;;
27201;SDS011;14717;46.924;15.474;2022-11-20T04:03:44;24.15;;;8.05;;
27201;SDS011;14717;46.924;15.474;2022-11-20T04:06:15;18.23;;;8.13;;
27201;SDS011;14717;46.924;15.474;2022-11-20T04:08:44;15.50;;;7.15;;
27201;SDS011;14717;46.924;15.474;2022-11-20T04:11:14;17.27;;;7.40;;
27201;SDS011;14717;46.924;15.474;2022-11-20T04:13:48;15.60;;;7.68;;
27201;SDS011;14717;46.924;15.474;2022-11-20T04:16:16;20.15;;;7.93;;
27201;SDS011;14717;46.924;15.474;2022-11-20T04:18:41;16.88;;;8.13;;
27201;SDS011;14717;46.924;15.474;2022-11-20T04:21:08;17.23;;;7.72;;
27201;SDS011;14717;46.924;15.474;2022-11-20T04:23:34;17.63;;;8.00;;
27201;SDS011;14717;46.924;15.474;2022-11-20T04:26:09;17.88;;;7.22;;
27201;SDS011;14717;46.924;15.474;2022-11-20T04:28:36;16.85;;;7.30;;
27201;SDS011;14717;46.924;15.474;2022-11-20T04:31:03;19.98;;;8.23;;
27201;SDS011;14717;46.924;15.474;2022-11-20T04:33:29;16.45;;;7.20;;
27201;SDS011;14717;46.924;15.474;2022-11-20T04:35:54;17.83;;;7.80;;
27201;SDS011;14717;46.924;15.474;2022-11-20T04:38:20;16.30;;;7.35;;
27201;SDS011;14717;46.924;15.474;2022-11-20T04:40:45;16.30;;;7.63;;
27201;SDS011;14717;46.924;15.474;2022-11-20T04:43:11;15.25;;;7.82;;
27201;SDS011;14717;46.924;15.474;2022-11-20T04:45:36;17.77;;;6.97;;
27201;SDS011;14717;46.924;15.474;2022-11-20T04:48:01;17.92;;;8.38;;
27201;SDS011;14717;46.924;15.474;2022-11-20T04:50:27;18.08;;;7.90;;
27201;SDS011;14717;46.924;15.474;2022-11-20T04:52:52;17.67;;;7.80;;
27201;SDS011;14717;46.924;15.474;2022-11-20T04:55:17;14.63;;;7.10;;
27201;SDS011;14717;46.924;15.474;2022-11-20T04:57:43;17.10;;;7.75;;
27201;SDS011;14717;46.924;15.474;2022-11-20T05:00:08;16.55;;;7.60;;
27201;SDS011;14717;46.924;15.474;2022-11-20T05:02:34;18.25;;;7.43;;
27201;SDS011;14717;46.924;15.474;2022-11-20T05:04:59;18.05;;;7.95;;
27201;SDS011;14717;46.924;15.474;2022-11-20T05:07:24;17.85;;;8.05;;
27201;SDS011;14717;46.924;15.474;2022-11-20T05:09:50;18.30;;;8.55;;
27201;SDS011;14717;46.924;15.474;2022-11-20T05:12:15;17.63;;;7.82;;
27201;SDS011;14717;46.924;15.474;2022-11-20T05:14:40;18.63;;;7.90;;
27201;SDS011;14717;46.924;15.474;2022-11-20T05:17:06;17.90;;;7.97;;
27201;SDS011;14717;46.924;15.474;2022-11-20T05:19:35;16.77;;;7.88;;
27201;SDS011;14717;46.924;15.474;2022-11-20T05:22:00;19.45;;;8.45;;
27201;SDS011;14717;46.924;15.474;2022-11-20T05:24:25;18.35;;;8.57;;
27201;SDS011;14717;46.924;15.474;2022-11-20T05:26:51;20.48;;;7.88;;
27201;SDS011;14717;46.924;15.474;2022-11-20T05:29:16;20.13;;;8.27;;
27201;SDS011;14717;46.924;15.474;2022-11-20T05:31:41;19.02;;;7.72;;
27201;SDS011;14717;46.924;15.474;2022-11-20T05:34:07;18.95;;;7.95;;
27201;SDS011;14717;46.924;15.474;2022-11-20T05:36:33;18.35;;;8.20;;
27201;SDS011;14717;46.924;15.474;2022-11-20T05:38:58;16.10;;;8.10;;
27201;SDS011;14717;46.924;15.474;2022-11-20T05:41:24;21.23;;;8.95;;
27201;SDS011;14717;46.924;15.474;2022-11-20T05:43:50;17.85;;;8.30;;
27201;SDS011;14717;46.924;15.474;2022-11-20T05:46:17;16.67;;;7.80;;
27201;SDS011;14717;46.924;15.474;2022-11-20T05:48:45;18.42;;;7.88;;
27201;SDS011;14717;46.924;15.474;2022-11-20T05:51:12;18.08;;;7.47;;
27201;SDS011;14717;46.924;15.474;2022-11-20T05:53:39;20.65;;;8.25;;
27201;SDS011;14717;46.924;15.474;2022-11-20T05:58:32;16.52;;;7.60;;
27201;SDS011;14717;46.924;15.474;2022-11-20T06:01:05;15.88;;;7.63;;
27201;SDS011;14717;46.924;15.474;2022-11-20T06:03:36;16.17;;;7.35;;
27201;SDS011;14717;46.924;15.474;2022-11-20T06:06:03;17.88;;;7.47;;
27201;SDS011;14717;46.924;15.474;2022-11-20T06:08:30;15.40;;;7.50;;
27201;SDS011;14717;46.924;15.474;2022-11-20T06:10:56;19.05;;;7.53;;
27201;SDS011;14717;46.924;15.474;2022-11-20T06:13:21;15.10;;;6.97;;
27201;SDS011;14717;46.924;15.474;2022-11-20T06:15:50;14.98;;;6.78;;
27201;SDS011;14717;46.924;15.474;2022-11-20T06:18:16;16.55;;;8.05;;
27201;SDS011;14717;46.924;15.474;2022-11-20T06:20:42;15.85;;;7.00;;
27201;SDS011;14717;46.924;15.474;2022-11-20T06:23:08;16.40;;;7.88;;
27201;SDS011;14717;46.924;15.474;2022-11-20T06:25:34;15.40;;;6.78;;
27201;SDS011;14717;46.924;15.474;2022-11-20T06:28:02;17.63;;;7.80;;
27201;SDS011;14717;46.924;15.474;2022-11-20T06:30:28;15.23;;;6.72;;
27201;SDS011;14717;46.924;15.474;2022-11-20T06:32:53;14.77;;;7.25;;
27201;SDS011;14717;46.924;15.474;2022-11-20T06:35:18;14.55;;;6.82;;
27201;SDS011;14717;46.924;15.474;2022-11-20T06:37:44;13.50;;;5.97;;
27201;SDS011;14717;46.924;15.474;2022-11-20T06:40:09;16.10;;;7.40;;
27201;SDS011;14717;46.924;15.474;2022-11-20T06:42:35;15.23;;;6.75;;
27201;SDS011;14717;46.924;15.474;2022-11-20T06:45:00;17.02;;;7.03;;
27201;SDS011;14717;46.924;15.474;2022-11-20T06:47:26;14.25;;;5.82;;
27201;SDS011;14717;46.924;15.474;2022-11-20T06:49:51;18.33;;;7.10;;
27201;SDS011;14717;46.924;15.474;2022-11-20T06:52:16;16.13;;;6.45;;
27201;SDS011;14717;46.924;15.474;2022-11-20T06:54:42;15.52;;;6.78;;
27201;SDS011;14717;46.924;15.474;2022-11-20T06:57:07;15.52;;;6.80;;
27201;SDS011;14717;46.924;15.474;2022-11-20T06:59:32;16.10;;;6.60;;
27201;SDS011;14717;46.924;15.474;2022-11-20T07:01:58;22.88;;;9.65;;
27201;SDS011;14717;46.924;15.474;2022-11-20T07:04:23;31.27;;;12.38;;
27201;SDS011;14717;46.924;15.474;2022-11-20T07:06:48;16.95;;;8.00;;
27201;SDS011;14717;46.924;15.474;2022-11-20T07:09:14;13.30;;;6.32;;
27201;SDS011;14717;46.924;15.474;2022-11-20T07:11:39;14.15;;;7.05;;
27201;SDS011;14717;46.924;15.474;2022-11-20T07:14:04;14.68;;;6.25;;
27201;SDS011;14717;46.924;15.474;2022-11-20T07:16:30;21.17;;;10.25;;
27201;SDS011;14717;46.924;15.474;2022-11-20T07:18:55;21.13;;;11.40;;
27201;SDS011;14717;46.924;15.474;2022-11-20T07:21:21;17.48;;;8.50;;
27201;SDS011;14717;46.924;15.474;2022-11-20T07:23:46;15.25;;;8.00;;
27201;SDS011;14717;46.924;15.474;2022-11-20T07:26:11;15.68;;;7.60;;
27201;SDS011;14717;46.924;15.474;2022-11-20T07:28:37;11.98;;;6.60;;
27201;SDS011;14717;46.924;15.474;2022-11-20T07:31:03;12.88;;;6.18;;
27201;SDS011;14717;46.924;15.474;2022-11-20T07:33:30;11.38;;;5.63;;
27201;SDS011;14717;46.924;15.474;2022-11-20T07:35:55;12.38;;;6.25;;
27201;SDS011;14717;46.924;15.474;2022-11-20T07:38:20;13.55;;;6.70;;
27201;SDS011;14717;46.924;15.474;2022-11-20T07:40:46;13.20;;;6.65;;
27201;SDS011;14717;46.924;15.474;2022-11-20T07:43:11;14.30;;;6.60;;
27201;SDS011;14717;46.924;15.474;2022-11-20T07:45:36;13.68;;;6.10;;
27201;SDS011;14717;46.924;15.474;2022-11-20T07:48:02;14.20;;;6.90;;
27201;SDS011;14717;46.924;15.474;2022-11-20T07:50:27;16.00;;;7.70;;
27201;SDS011;14717;46.924;15.474;2022-11-20T07:52:59;14.13;;;7.45;;
27201;SDS011;14717;46.924;15.474;2022-11-20T07:55:29;14.30;;;6.55;;
27201;SDS011;14717;46.924;15.474;2022-11-20T07:57:55;12.85;;;6.32;;
27201;SDS011;14717;46.924;15.474;2022-11-20T08:00:22;14.70;;;6.38;;
27201;SDS011;14717;46.924;15.474;2022-11-20T08:02:47;14.48;;;6.03;;
27201;SDS011;14717;46.924;15.474;2022-11-20T08:05:13;14.80;;;6.95;;
27201;SDS011;14717;46.924;15.474;2022-11-20T08:07:39;13.38;;;5.88;;
27201;SDS011;14717;46.924;15.474;2022-11-20T08:10:05;13.18;;;6.65;;
27201;SDS011;14717;46.924;15.474;2022-11-20T08:12:32;12.45;;;6.05;;
27201;SDS011;14717;46.924;15.474;2022-11-20T08:15:16;14.05;;;6.85;;
27201;SDS011;14717;46.924;15.474;2022-11-20T08:17:41;17.88;;;7.00;;
27201;SDS011;14717;46.924;15.474;2022-11-20T08:20:07;14.40;;;6.95;;
27201;SDS011;14717;46.924;15.474;2022-11-20T08:22:32;14.35;;;7.03;;
27201;SDS011;14717;46.924;15.474;2022-11-20T08:24:58;16.23;;;7.60;;
27201;SDS011;14717;46.924;15.474;2022-11-20T08:27:23;14.80;;;6.65;;
27201;SDS011;14717;46.924;15.474;2022-11-20T08:29:48;16.35;;;7.60;;
27201;SDS011;14717;46.924;15.474;2022-11-20T08:32:14;14.32;;;6.45;;
27201;SDS011;14717;46.924;15.474;2022-11-20T08:34:39;13.70;;;7.05;;
27201;SDS011;14717;46.924;15.474;2022-11-20T08:37:05;14.85;;;7.28;;
27201;SDS011;14717;46.924;15.474;2022-11-20T08:39:30;13.73;;;6.72;;
27201;SDS011;14717;46.924;15.474;2022-11-20T08:41:55;13.40;;;6.13;;
27201;SDS011;14717;46.924;15.474;2022-11-20T08:44:22;13.07;;;6.20;;
27201;SDS011;14717;46.924;15.474;2022-11-20T08:49:14;13.48;;;6.85;;
27201;SDS011;14717;46.924;15.474;2022-11-20T08:51:39;14.90;;;6.47;;
27201;SDS011;14717;46.924;15.474;2022-11-20T08:54:06;17.30;;;8.65;;
27201;SDS011;14717;46.924;15.474;2022-11-20T08:56:32;13.73;;;6.13;;
27201;SDS011;14717;46.924;15.474;2022-11-20T08:58:58;13.93;;;6.90;;
27201;SDS011;14717;46.924;15.474;2022-11-20T09:01:27;16.63;;;7.00;;
27201;SDS011;14717;46.924;15.474;2022-11-20T09:03:57;14.13;;;6.72;;
27201;SDS011;14717;46.924;15.474;2022-11-20T09:06:22;14.95;;;7.50;;
27201;SDS011;14717;46.924;15.474;2022-11-20T09:08:51;14.18;;;7.10;;
27201;SDS011;14717;46.924;15.474;2022-11-20T09:11:17;13.80;;;6.63;;
27201;SDS011;14717;46.924;15.474;2022-11-20T09:13:42;13.82;;;7.10;;
27201;SDS011;14717;46.924;15.474;2022-11-20T09:16:08;13.43;;;6.63;;
27201;SDS011;14717;46.924;15.474;2022-11-20T09:18:34;15.93;;;7.90;;
27201;SDS011;14717;46.924;15.474;2022-11-20T09:21:04;19.17;;;8.15;;
27201;SDS011;14717;46.924;15.474;2022-11-20T09:23:35;18.60;;;8.82;;
27201;SDS011;14717;46.924;15.474;2022-11-20T09:26:03;14.23;;;7.22;;
27201;SDS011;14717;46.924;15.474;2022-11-20T09:28:33;14.48;;;7.00;;
27201;SDS011;14717;46.924;15.474;2022-11-20T09:30:59;18.90;;;7.88;;
27201;SDS011;14717;46.924;15.474;2022-11-20T09:33:25;13.27;;;6.85;;
27201;SDS011;14717;46.924;15.474;2022-11-20T09:35:50;17.70;;;8.45;;
27201;SDS011;14717;46.924;15.474;2022-11-20T09:38:16;15.05;;;7.10;;
27201;SDS011;14717;46.924;15.474;2022-11-20T09:40:45;15.63;;;7.80;;
27201;SDS011;14717;46.924;15.474;2022-11-20T09:43:27;18.67;;;7.53;;
27201;SDS011;14717;46.924;15.474;2022-11-20T09:54:19;18.70;;;7.95;;
27201;SDS011;14717;46.924;15.474;2022-11-20T09:56:47;17.80;;;8.00;;
27201;SDS011;14717;46.924;15.474;2022-11-20T09:59:25;17.40;;;8.45;;
27201;SDS011;14717;46.924;15.474;2022-11-20T10:01:57;17.30;;;8.18;;
27201;SDS011;14717;46.924;15.474;2022-11-20T10:04:25;16.52;;;7.47;;
27201;SDS011;14717;46.924;15.474;2022-11-20T10:07:08;16.65;;;7.68;;
27201;SDS011;14717;46.924;15.474;2022-11-20T10:09:41;17.50;;;7.85;;
27201;SDS011;14717;46.924;15.474;2022-11-20T10:20:46;16.88;;;8.65;;
27201;SDS011;14717;46.924;15.474;2022-11-20T10:31:39;18.60;;;9.73;;
27201;SDS011;14717;46.924;15.474;2022-11-20T10:34:12;19.08;;;9.25;;
27201;SDS011;14717;46.924;15.474;2022-11-20T10:36:46;18.38;;;8.38;;
27201;SDS011;14717;46.924;15.474;2022-11-20T10:42:08;20.30;;;8.93;;
27201;SDS011;14717;46.924;15.474;2022-11-20T10:44:38;16.30;;;9.40;;
27201;SDS011;14717;46.924;15.474;2022-11-20T10:47:26;22.73;;;10.43;;
27201;SDS011;14717;46.924;15.474;2022-11-20T10:49:55;18.73;;;9.20;;
27201;SDS011;14717;46.924;15.474;2022-11-20T11:01:05;49.33;;;21.48;;
27201;SDS011;14717;46.924;15.474;2022-11-20T11:03:38;19.63;;;9.52;;
27201;SDS011;14717;46.924;15.474;2022-11-20T11:06:08;23.42;;;10.80;;
27201;SDS011;14717;46.924;15.474;2022-11-20T11:08:42;31.92;;;14.73;;
27201;SDS011;14717;46.924;15.474;2022-11-20T11:11:20;23.88;;;11.10;;
27201;SDS011;14717;46.924;15.474;2022-11-20T11:13:47;16.08;;;8.73;;
27201;SDS011;14717;46.924;15.474;2022-11-20T11:16:23;15.07;;;7.60;;
27201;SDS011;14717;46.924;15.474;2022-11-20T11:18:50;15.20;;;8.15;;
27201;SDS011;14717;46.924;15.474;2022-11-20T11:21:23;13.57;;;7.57;;
27201;SDS011;14717;46.924;15.474;2022-11-20T11:24:00;14.60;;;7.10;;
27201;SDS011;14717;46.924;15.474;2022-11-20T11:26:28;14.02;;;7.18;;
27201;SDS011;14717;46.924;15.474;2022-11-20T11:28:55;12.52;;;7.13;;
27201;SDS011;14717;46.924;15.474;2022-11-20T11:31:33;14.70;;;7.72;;
27201;SDS011;14717;46.924;15.474;2022-11-20T11:34:07;18.23;;;11.85;;
27201;SDS011;14717;46.924;15.474;2022-11-20T11:36:40;13.82;;;6.88;;
27201;SDS011;14717;46.924;15.474;2022-11-20T11:39:17;14.40;;;8.13;;
27201;SDS011;14717;46.924;15.474;2022-11-20T11:41:44;16.38;;;6.90;;
27201;SDS011;14717;46.924;15.474;2022-11-20T11:47:25;10.73;;;5.93;;
27201;SDS011;14717;46.924;15.474;2022-11-20T11:52:43;12.50;;;6.50;;
27201;SDS011;14717;46.924;15.474;2022-11-20T11:55:15;10.82;;;5.97;;
27201;SDS011;14717;46.924;15.474;2022-11-20T12:00:32;12.23;;;6.20;;
27201;SDS011;14717;46.924;15.474;2022-11-20T12:03:04;10.30;;;5.60;;
27201;SDS011;14717;46.924;15.474;2022-11-20T12:05:46;8.73;;;5.25;;
27201;SDS011;14717;46.924;15.474;2022-11-20T12:08:19;7.05;;;4.65;;
27201;SDS011;14717;46.924;15.474;2022-11-20T12:11:03;6.95;;;3.72;;
27201;SDS011;14717;46.924;15.474;2022-11-20T12:13:42;8.30;;;3.97;;
27201;SDS011;14717;46.924;15.474;2022-11-20T12:16:12;6.43;;;3.67;;
27201;SDS011;14717;46.924;15.474;2022-11-20T12:18:39;6.75;;;3.90;;
27201;SDS011;14717;46.924;15.474;2022-11-20T12:35:23;7.13;;;3.90;;
27201;SDS011;14717;46.924;15.474;2022-11-20T12:38:08;7.03;;;3.83;;
27201;SDS011;14717;46.924;15.474;2022-11-20T12:44:10;5.90;;;3.45;;
27201;SDS011;14717;46.924;15.474;2022-11-20T12:47:18;6.95;;;4.10;;
27201;SDS011;14717;46.924;15.474;2022-11-20T12:49:56;9.38;;;4.65;;
27201;SDS011;14717;46.924;15.474;2022-11-20T12:57:50;7.93;;;4.25;;
27201;SDS011;14717;46.924;15.474;2022-11-20T13:00:20;8.15;;;4.38;;
27201;SDS011;14717;46.924;15.474;2022-11-20T13:05:41;5.82;;;3.70;;
27201;SDS011;14717;46.924;15.474;2022-11-20T13:11:12;7.25;;;3.88;;
27201;SDS011;14717;46.924;15.474;2022-11-20T13:16:40;6.93;;;4.00;;
27201;SDS011;14717;46.924;15.474;2022-11-20T13:19:15;7.03;;;3.80;;
27201;SDS011;14717;46.924;15.474;2022-11-20T13:21:43;6.55;;;4.03;;
27201;SDS011;14717;46.924;15.474;2022-11-20T13:29:26;8.80;;;4.40;;
27201;SDS011;14717;46.924;15.474;2022-11-20T13:32:00;7.05;;;4.43;;
27201;SDS011;14717;46.924;15.474;2022-11-20T13:34:30;8.60;;;5.00;;
27201;SDS011;14717;46.924;15.474;2022-11-20T13:36:56;6.25;;;4.43;;
27201;SDS011;14717;46.924;15.474;2022-11-20T13:39:26;7.32;;;4.63;;
27201;SDS011;14717;46.924;15.474;2022-11-20T13:41:54;7.53;;;4.45;;
27201;SDS011;14717;46.924;15.474;2022-11-20T13:44:42;8.90;;;4.35;;
27201;SDS011;14717;46.924;15.474;2022-11-20T13:47:25;7.00;;;3.92;;
27201;SDS011;14717;46.924;15.474;2022-11-20T13:49:51;6.53;;;3.80;;
27201;SDS011;14717;46.924;15.474;2022-11-20T14:02:40;6.70;;;3.95;;
27201;SDS011;14717;46.924;15.474;2022-11-20T14:05:13;7.63;;;4.30;;
27201;SDS011;14717;46.924;15.474;2022-11-20T14:07:45;5.65;;;4.05;;
27201;SDS011;14717;46.924;15.474;2022-11-20T14:12:53;7.20;;;4.10;;
27201;SDS011;14717;46.924;15.474;2022-11-20T14:15:26;6.25;;;4.20;;
27201;SDS011;14717;46.924;15.474;2022-11-20T14:17:56;6.57;;;4.10;;
27201;SDS011;14717;46.924;15.474;2022-11-20T14:20:23;6.38;;;4.07;;
27201;SDS011;14717;46.924;15.474;2022-11-20T14:22:52;7.63;;;4.85;;
27201;SDS011;14717;46.924;15.474;2022-11-20T14:30:19;7.05;;;4.60;;
27201;SDS011;14717;46.924;15.474;2022-11-20T14:33:01;8.02;;;4.80;;
27201;SDS011;14717;46.924;15.474;2022-11-20T14:35:34;10.23;;;5.03;;
27201;SDS011;14717;46.924;15.474;2022-11-20T14:38:02;7.35;;;5.03;;
27201;SDS011;14717;46.924;15.474;2022-11-20T14:42:55;8.63;;;4.70;;
27201;SDS011;14717;46.924;15.474;2022-11-20T14:45:21;7.72;;;4.78;;
27201;SDS011;14717;46.924;15.474;2022-11-20T14:50:19;7.80;;;5.22;;
27201;SDS011;14717;46.924;15.474;2022-11-20T14:52:51;10.00;;;5.25;;
27201;SDS011;14717;46.924;15.474;2022-11-20T14:58:00;9.10;;;5.25;;
27201;SDS011;14717;46.924;15.474;2022-11-20T15:00:53;9.30;;;5.60;;
27201;SDS011;14717;46.924;15.474;2022-11-20T15:03:30;9.65;;;5.45;;
27201;SDS011;14717;46.924;15.474;2022-11-20T15:05:57;9.43;;;5.80;;
27201;SDS011;14717;46.924;15.474;2022-11-20T15:08:22;10.50;;;6.22;;
27201;SDS011;14717;46.924;15.474;2022-11-20T15:10:48;10.63;;;6.40;;
27201;SDS011;14717;46.924;15.474;2022-11-20T15:13:24;12.32;;;6.40;;
27201;SDS011;14717;46.924;15.474;2022-11-20T15:15:53;11.10;;;6.80;;
27201;SDS011;14717;46.924;15.474;2022-11-20T15:18:23;13.77;;;7.30;;
27201;SDS011;14717;46.924;15.474;2022-11-20T15:20:55;13.60;;;7.10;;
27201;SDS011;14717;46.924;15.474;2022-11-20T15:23:22;14.63;;;7.50;;
27201;SDS011;14717;46.924;15.474;2022-11-20T15:25:48;12.00;;;7.43;;
27201;SDS011;14717;46.924;15.474;2022-11-20T15:28:27;10.25;;;6.63;;
27201;SDS011;14717;46.924;15.474;2022-11-20T15:30:56;10.82;;;6.28;;
27201;SDS011;14717;46.924;15.474;2022-11-20T15:33:22;10.65;;;6.47;;
27201;SDS011;14717;46.924;15.474;2022-11-20T15:35:47;11.25;;;7.07;;
27201;SDS011;14717;46.924;15.474;2022-11-20T15:38:12;11.82;;;6.72;;
27201;SDS011;14717;46.924;15.474;2022-11-20T15:40:38;10.73;;;6.03;;
27201;SDS011;14717;46.924;15.474;2022-11-20T15:43:04;11.18;;;7.35;;
27201;SDS011;14717;46.924;15.474;2022-11-20T15:45:52;12.65;;;6.65;;
27201;SDS011;14717;46.924;15.474;2022-11-20T15:48:18;10.77;;;6.68;;
27201;SDS011;14717;46.924;15.474;2022-11-20T15:53:34;12.50;;;7.22;;
27201;SDS011;14717;46.924;15.474;2022-11-20T15:56:00;12.50;;;7.72;;
27201;SDS011;14717;46.924;15.474;2022-11-20T15:58:25;13.27;;;7.95;;
27201;SDS011;14717;46.924;15.474;2022-11-20T16:00:51;13.90;;;8.07;;
27201;SDS011;14717;46.924;15.474;2022-11-20T16:03:17;14.48;;;7.93;;
27201;SDS011;14717;46.924;15.474;2022-11-20T16:05:43;13.65;;;8.85;;
27201;SDS011;14717;46.924;15.474;2022-11-20T16:08:08;15.23;;;9.10;;
27201;SDS011;14717;46.924;15.474;2022-11-20T16:10:34;15.93;;;9.50;;
27201;SDS011;14717;46.924;15.474;2022-11-20T16:13:00;15.13;;;9.25;;
27201;SDS011;14717;46.924;15.474;2022-11-20T16:15:52;15.73;;;9.43;;
27201;SDS011;14717;46.924;15.474;2022-11-20T16:18:21;15.52;;;9.07;;
27201;SDS011;14717;46.924;15.474;2022-11-20T16:20:51;24.83;;;11.25;;
27201;SDS011;14717;46.924;15.474;2022-11-20T16:23:18;19.83;;;9.45;;
27201;SDS011;14717;46.924;15.474;2022-11-20T16:25:44;19.60;;;9.52;;
27201;SDS011;14717;46.924;15.474;2022-11-20T16:28:10;16.70;;;7.60;;
27201;SDS011;14717;46.924;15.474;2022-11-20T16:30:36;14.15;;;7.40;;
27201;SDS011;14717;46.924;15.474;2022-11-20T16:33:02;12.10;;;6.82;;
27201;SDS011;14717;46.924;15.474;2022-11-20T16:35:29;12.05;;;6.75;;
27201;SDS011;14717;46.924;15.474;2022-11-20T16:37:55;9.10;;;6.20;;